Time;durP1;ratioP1;P1;durP2;ratioP2;P2;SDS_P1;SDS_P2;PMS_P1;PMS_P2;Temp;Humidity;BMP_temperature;BMP_pressure;BME280_temperature;BME280_humidity;BME280_pressure;Samples;Min_cycle;Max_cycle;Signal;HPM_P1;HPM_P2
2023/11/02 00:02:22;;;;;;;1.33;0.67;;;;;;;11.58;81.24;98895.09;5046455;28;20280;-74
2023/11/02 00:04:49;;;;;;;2.70;1.00;;;;;;;11.57;81.42;98896.91;5043525;28;20226;-74
2023/11/02 00:07:16;;;;;;;2.80;0.97;;;;;;;11.55;81.56;98900.72;5045354;28;20208;-74
2023/11/02 00:09:43;;;;;;;2.10;0.60;;;;;;;11.58;81.24;98893.28;5046054;28;20224;-74
2023/11/02 00:12:14;;;;;;;2.00;0.57;;;;;;;11.56;81.34;98887.25;5043611;28;20599;-74
2023/11/02 00:14:45;;;;;;;1.60;0.90;;;;;;;11.53;81.86;98876.88;5044483;28;20278;-74
2023/11/02 00:17:48;;;;;;;1.03;0.50;;;;;;;11.49;81.64;98880.81;5043226;28;20243;-74
2023/11/02 00:20:30;;;;;;;1.13;0.50;;;;;;;11.47;81.76;98866.78;5044974;28;20204;-74
2023/11/02 00:22:56;;;;;;;2.60;0.73;;;;;;;11.39;81.89;98870.19;5047984;28;20282;-74
2023/11/02 00:25:44;;;;;;;2.93;0.73;;;;;;;11.38;81.80;98860.50;5049676;28;20205;-74
2023/11/02 00:28:11;;;;;;;2.87;0.70;;;;;;;11.35;82.13;98854.63;5046585;28;20210;-75
2023/11/02 00:30:38;;;;;;;2.77;0.60;;;;;;;11.33;81.94;98848.59;5043121;28;20213;-73
2023/11/02 00:33:06;;;;;;;1.27;0.47;;;;;;;11.30;81.83;98852.38;5043619;28;20227;-73
2023/11/02 00:35:33;;;;;;;1.87;0.70;;;;;;;11.28;81.97;98845.53;5041856;28;20417;-74
2023/11/02 00:37:59;;;;;;;1.70;0.50;;;;;;;11.24;82.13;98847.66;5044148;28;20213;-73
2023/11/02 00:40:26;;;;;;;2.17;0.70;;;;;;;11.23;82.41;98840.66;5043198;28;20213;-74
2023/11/02 00:42:52;;;;;;;0.53;0.43;;;;;;;11.22;82.50;98832.78;5047663;28;20212;-73
2023/11/02 00:45:19;;;;;;;2.97;0.53;;;;;;;11.12;82.95;98820.31;5040931;28;20214;-74
2023/11/02 00:47:46;;;;;;;0.90;0.43;;;;;;;11.06;83.27;98820.94;5043292;28;20574;-74
2023/11/02 00:50:51;;;;;;;1.30;0.60;;;;;;;11.03;83.54;98817.69;5045480;28;20224;-74
2023/11/02 00:53:18;;;;;;;3.57;0.60;;;;;;;10.98;84.15;98825.28;5046697;28;20516;-74
2023/11/02 00:55:44;;;;;;;2.50;0.70;;;;;;;10.94;84.38;98822.06;5047428;28;20223;-74
2023/11/02 00:58:12;;;;;;;1.70;0.60;;;;;;;10.93;84.80;98816.88;5043159;28;20219;-73
2023/11/02 01:01:03;;;;;;;1.37;0.70;;;;;;;10.86;85.09;98803.31;5043894;28;20205;-74
2023/11/02 01:03:30;;;;;;;2.33;0.90;;;;;;;10.84;85.78;98799.09;5045278;28;20622;-74
2023/11/02 01:05:58;;;;;;;2.10;0.80;;;;;;;10.79;85.93;98796.88;5046965;28;20213;-74
2023/11/02 01:08:30;;;;;;;2.03;0.87;;;;;;;10.76;86.51;98795.31;5044430;28;20231;-74
2023/11/02 01:10:56;;;;;;;1.13;0.60;;;;;;;10.75;87.04;98803.47;5044554;28;20679;-74
2023/11/02 01:13:23;;;;;;;2.33;0.80;;;;;;;10.74;87.19;98807.13;5043271;28;20231;-74
2023/11/02 01:16:05;;;;;;;0.60;0.60;;;;;;;10.71;87.81;98797.59;5045505;28;20267;-74
2023/11/02 01:18:31;;;;;;;3.03;0.90;;;;;;;10.67;87.95;98790.03;5045844;28;20207;-74
2023/11/02 01:21:02;;;;;;;1.77;0.67;;;;;;;10.66;88.73;98799.00;5039350;28;20213;-73
2023/11/02 01:23:30;;;;;;;2.20;0.63;;;;;;;10.65;88.69;98794.66;5046355;28;20220;-73
2023/11/02 01:25:57;;;;;;;2.23;1.07;;;;;;;10.62;88.89;98795.78;5043766;28;20218;-74
2023/11/02 01:28:44;;;;;;;1.50;0.70;;;;;;;10.57;89.34;98792.69;5043628;28;20213;-74
2023/11/02 01:31:16;;;;;;;0.93;0.60;;;;;;;10.57;89.94;98784.72;5039975;28;20207;-74
2023/11/02 01:34:01;;;;;;;1.30;0.40;;;;;;;10.55;89.84;98778.72;5044859;28;20231;-74
2023/11/02 01:36:37;;;;;;;0.63;0.47;;;;;;;10.52;90.10;98776.34;5044012;28;20258;-74
2023/11/02 01:39:36;;;;;;;3.00;0.60;;;;;;;10.54;90.20;98773.53;5045341;28;20227;-74
2023/11/02 01:42:11;;;;;;;2.50;0.60;;;;;;;10.51;90.21;98764.00;5041493;28;20198;-74
2023/11/02 01:44:46;;;;;;;1.63;0.43;;;;;;;10.50;90.54;98754.34;5043752;28;20257;-74
2023/11/02 01:47:34;;;;;;;2.00;0.60;;;;;;;10.50;90.84;98751.69;5043955;28;20201;-73
2023/11/02 01:50:08;;;;;;;3.83;0.73;;;;;;;10.48;90.71;98748.31;5037156;28;20224;-74
2023/11/02 01:52:53;;;;;;;1.50;0.63;;;;;;;10.47;90.83;98746.63;5041486;28;20201;-74
2023/11/02 01:55:32;;;;;;;2.20;0.63;;;;;;;10.41;90.87;98753.34;5045371;28;20731;-74
2023/11/02 01:58:06;;;;;;;1.27;0.67;;;;;;;10.40;91.09;98735.72;5042078;28;20243;-74
2023/11/02 02:00:41;;;;;;;1.73;0.67;;;;;;;10.40;91.06;98729.56;5044202;28;20670;-74
2023/11/02 02:03:19;;;;;;;2.37;0.63;;;;;;;10.38;90.90;98727.06;5042539;28;20579;-72
2023/11/02 02:05:51;;;;;;;1.53;0.50;;;;;;;10.38;91.01;98721.75;5041960;28;20606;-74
2023/11/02 02:08:27;;;;;;;2.60;0.50;;;;;;;10.37;90.83;98719.22;5044269;28;20206;-73
2023/11/02 02:11:03;;;;;;;4.23;0.77;;;;;;;10.40;90.53;98719.75;5045448;28;20683;-74
2023/11/02 02:13:41;;;;;;;1.33;0.60;;;;;;;10.40;90.44;98721.56;5040577;28;20227;-74
2023/11/02 02:16:17;;;;;;;1.77;0.70;;;;;;;10.39;90.33;98707.41;5044224;28;20225;-74
2023/11/02 02:18:48;;;;;;;1.53;0.47;;;;;;;10.41;90.19;98704.63;5046057;28;20206;-74
2023/11/02 02:21:21;;;;;;;1.87;0.60;;;;;;;10.42;90.21;98701.81;5041774;28;20219;-73
2023/11/02 02:23:54;;;;;;;2.97;0.57;;;;;;;10.46;89.71;98701.53;5046369;28;20225;-73
2023/11/02 02:26:55;;;;;;;1.57;0.50;;;;;;;10.46;89.60;98691.72;5039416;28;20235;-74
2023/11/02 02:29:39;;;;;;;1.20;0.70;;;;;;;10.46;89.49;98690.88;5040875;28;20548;-73
2023/11/02 02:32:34;;;;;;;3.13;0.70;;;;;;;10.46;89.40;98677.59;5044432;28;20595;-73
2023/11/02 02:35:08;;;;;;;1.40;0.60;;;;;;;10.47;89.31;98684.59;5043768;28;20242;-73
2023/11/02 02:37:37;;;;;;;2.50;0.90;;;;;;;10.44;89.79;98673.25;5039721;28;20250;-73
2023/11/02 02:40:08;;;;;;;2.57;0.60;;;;;;;10.43;89.72;98673.38;5037536;28;20207;-73
2023/11/02 02:42:37;;;;;;;2.67;0.60;;;;;;;10.39;89.87;98664.84;5036493;28;20210;-73
2023/11/02 02:45:07;;;;;;;0.80;0.50;;;;;;;10.34;90.26;98663.63;5037031;28;20344;-74
2023/11/02 02:47:37;;;;;;;2.47;0.70;;;;;;;10.30;90.38;98664.88;5041620;28;20200;-72
2023/11/02 02:50:09;;;;;;;1.20;0.80;;;;;;;10.28;90.80;98651.72;5037570;28;20623;-73
2023/11/02 02:52:38;;;;;;;3.33;0.77;;;;;;;10.27;90.88;98642.06;5045624;28;20231;-73
2023/11/02 02:55:08;;;;;;;1.70;0.50;;;;;;;10.24;90.80;98629.03;5042249;28;20728;-73
2023/11/02 02:57:38;;;;;;;1.07;0.57;;;;;;;10.23;90.96;98626.53;5044208;28;20605;-73
2023/11/02 03:00:08;;;;;;;2.70;0.80;;;;;;;10.22;91.20;98620.34;5042007;28;20219;-74
2023/11/02 03:02:35;;;;;;;1.10;0.57;;;;;;;10.20;91.30;98627.69;5042891;28;20734;-73
2023/11/02 03:05:04;;;;;;;1.57;0.70;;;;;;;10.17;91.38;98622.59;5040530;28;20209;-74
2023/11/02 03:07:32;;;;;;;3.70;0.90;;;;;;;10.16;91.42;98615.59;5045009;28;20210;-73
2023/11/02 03:10:01;;;;;;;0.67;0.53;;;;;;;10.12;91.78;98613.38;5039871;28;20204;-73
2023/11/02 03:12:34;;;;;;;0.70;0.40;;;;;;;10.11;92.08;98604.56;5043007;28;20208;-73
2023/11/02 03:15:05;;;;;;;1.33;0.90;;;;;;;10.08;92.21;98600.34;5035575;28;20219;-73
2023/11/02 03:17:45;;;;;;;3.17;0.70;;;;;;;10.06;92.28;98590.84;5045426;28;20591;-73
2023/11/02 03:20:14;;;;;;;2.03;1.00;;;;;;;10.01;92.52;98595.78;5043846;28;20223;-72
2023/11/02 03:22:42;;;;;;;2.40;0.60;;;;;;;9.96;92.89;98601.50;5044318;28;20198;-73
2023/11/02 03:25:14;;;;;;;2.03;0.60;;;;;;;9.90;92.94;98596.75;5041364;28;20203;-73
2023/11/02 03:27:53;;;;;;;2.73;0.80;;;;;;;9.88;93.18;98589.91;5042447;28;20673;-73
2023/11/02 03:30:30;;;;;;;1.57;0.77;;;;;;;9.85;93.58;98579.56;5038748;28;20205;-73
2023/11/02 03:33:03;;;;;;;2.50;0.63;;;;;;;9.84;93.77;98577.91;5042336;28;20239;-73
2023/11/02 03:35:36;;;;;;;2.97;0.80;;;;;;;9.81;93.88;98580.84;5041045;28;20287;-73
2023/11/02 03:38:16;;;;;;;2.10;0.60;;;;;;;9.79;94.01;98566.84;5043805;28;20885;-73
2023/11/02 03:40:56;;;;;;;1.63;0.73;;;;;;;9.77;94.39;98550.19;5041992;28;20347;-73
2023/11/02 03:43:29;;;;;;;1.47;0.60;;;;;;;9.79;94.76;98543.75;5044187;28;20234;-73
2023/11/02 03:46:10;;;;;;;0.93;0.60;;;;;;;9.80;94.56;98534.78;5041316;28;20329;-73
2023/11/02 03:48:44;;;;;;;2.13;0.60;;;;;;;9.80;94.85;98531.31;5044300;28;20925;-73
2023/11/02 03:51:29;;;;;;;2.00;0.70;;;;;;;9.81;95.05;98522.34;5043519;28;20520;-73
2023/11/02 03:54:11;;;;;;;2.00;0.70;;;;;;;9.80;95.07;98523.31;5042928;28;20226;-73
2023/11/02 03:56:49;;;;;;;1.67;0.60;;;;;;;9.82;95.09;98510.72;5042719;28;20233;-72
2023/11/02 03:59:24;;;;;;;1.50;0.80;;;;;;;9.80;95.18;98504.72;5048931;28;20210;-73
2023/11/02 04:02:00;;;;;;;3.80;0.80;;;;;;;9.78;95.50;98490.72;5047511;28;20221;-73
2023/11/02 04:04:35;;;;;;;1.50;0.67;;;;;;;9.73;95.80;98492.00;5045522;28;20838;-73
2023/11/02 04:07:03;;;;;;;1.67;0.97;;;;;;;9.73;95.99;98488.50;5044874;28;20737;-73
2023/11/02 04:09:38;;;;;;;2.33;0.70;;;;;;;9.73;96.13;98480.53;5045089;28;20303;-73
2023/11/02 04:12:27;;;;;;;1.23;0.60;;;;;;;9.71;96.37;98471.84;5046299;28;20213;-73
2023/11/02 04:14:56;;;;;;;2.70;0.90;;;;;;;9.75;96.44;98454.63;5046102;28;20226;-73
2023/11/02 04:17:22;;;;;;;2.40;0.70;;;;;;;9.74;96.44;98445.81;5045238;28;20258;-71
2023/11/02 04:19:49;;;;;;;3.50;1.23;;;;;;;9.77;96.27;98438.53;5045200;28;20203;-73
2023/11/02 04:22:15;;;;;;;0.73;0.67;;;;;;;9.74;96.55;98418.41;5047542;28;20210;-73
2023/11/02 04:24:43;;;;;;;1.80;0.70;;;;;;;9.74;96.77;98410.44;5046170;28;20241;-74
2023/11/02 04:27:10;;;;;;;1.37;0.60;;;;;;;9.80;96.17;98403.69;5048657;28;20208;-74
2023/11/02 04:29:36;;;;;;;2.03;0.70;;;;;;;9.81;96.27;98400.06;5045316;28;20207;-74
2023/11/02 04:32:03;;;;;;;4.97;0.80;;;;;;;9.80;95.94;98385.09;5047868;28;20669;-76
2023/11/02 04:34:29;;;;;;;1.87;0.73;;;;;;;9.82;95.82;98378.66;5046827;28;20241;-74
2023/11/02 04:36:56;;;;;;;1.03;0.73;;;;;;;9.84;95.52;98358.06;5047485;28;20226;-73
2023/11/02 04:39:23;;;;;;;1.20;0.67;;;;;;;9.85;95.49;98351.78;5045947;28;20666;-74
2023/11/02 04:41:50;;;;;;;2.13;0.50;;;;;;;9.85;95.70;98342.97;5045474;28;20218;-74
2023/11/02 04:44:18;;;;;;;1.77;0.60;;;;;;;9.90;95.63;98338.00;5047164;28;20229;-73
2023/11/02 04:46:44;;;;;;;1.83;0.70;;;;;;;9.91;95.25;98334.38;5047182;28;20205;-75
2023/11/02 04:49:11;;;;;;;1.50;0.70;;;;;;;9.91;95.30;98337.88;5045977;28;20206;-74
2023/11/02 04:51:37;;;;;;;2.30;0.60;;;;;;;9.93;94.83;98340.38;5043444;28;20222;-74
2023/11/02 04:54:04;;;;;;;2.13;0.60;;;;;;;9.92;94.90;98342.19;5045520;28;20411;-74
2023/11/02 04:56:30;;;;;;;2.70;0.70;;;;;;;9.97;94.68;98349.72;5047417;28;20611;-74
2023/11/02 04:58:58;;;;;;;2.60;0.73;;;;;;;9.96;94.90;98332.09;5046865;28;20481;-74
2023/11/02 05:01:24;;;;;;;1.27;0.90;;;;;;;9.94;94.93;98324.28;5048048;28;20207;-74
2023/11/02 05:03:55;;;;;;;1.67;0.60;;;;;;;9.94;94.72;98326.94;5041779;28;20235;-74
2023/11/02 05:06:22;;;;;;;2.83;0.50;;;;;;;9.98;94.42;98316.84;5041227;28;20198;-74
2023/11/02 05:08:48;;;;;;;1.70;1.03;;;;;;;9.98;94.16;98306.22;5042803;28;20217;-74
2023/11/02 05:11:15;;;;;;;2.33;0.70;;;;;;;10.01;93.63;98305.91;5047958;28;20653;-73
2023/11/02 05:13:41;;;;;;;2.57;0.83;;;;;;;10.04;93.23;98306.41;5042448;28;20221;-74
2023/11/02 05:16:09;;;;;;;3.10;0.60;;;;;;;10.06;93.09;98295.63;5041470;28;20200;-74
2023/11/02 05:18:36;;;;;;;1.50;0.77;;;;;;;10.08;92.82;98293.66;5045758;28;20209;-74
2023/11/02 05:21:02;;;;;;;1.80;1.10;;;;;;;10.10;92.34;98287.22;5041837;28;20301;-74
2023/11/02 05:23:28;;;;;;;2.10;0.60;;;;;;;10.17;91.63;98290.09;5042010;28;20218;-73
2023/11/02 05:25:55;;;;;;;1.67;0.70;;;;;;;10.17;91.61;98276.81;5041918;28;20206;-74
2023/11/02 05:28:22;;;;;;;2.13;0.57;;;;;;;10.16;91.46;98269.81;5040617;28;20198;-74
2023/11/02 05:30:48;;;;;;;3.47;0.70;;;;;;;10.23;90.99;98267.41;5047993;28;20211;-74
2023/11/02 05:33:16;;;;;;;1.93;0.50;;;;;;;10.25;90.52;98274.25;5044136;28;20222;-75
2023/11/02 05:35:43;;;;;;;4.90;0.80;;;;;;;10.28;89.88;98268.63;5045142;28;20211;-76
2023/11/02 05:38:09;;;;;;;2.63;0.80;;;;;;;10.36;89.06;98265.22;5045483;28;20228;-76
2023/11/02 05:40:36;;;;;;;1.50;0.53;;;;;;;10.39;88.43;98271.03;5043612;28;20202;-75
2023/11/02 05:43:02;;;;;;;1.90;0.40;;;;;;;10.46;87.72;98265.09;5037578;28;20630;-76
2023/11/02 05:45:29;;;;;;;4.03;0.60;;;;;;;10.49;87.25;98262.13;5039395;28;20208;-75
2023/11/02 05:47:55;;;;;;;1.63;0.77;;;;;;;10.49;87.55;98264.81;5035790;28;20210;-76
2023/11/02 05:50:24;;;;;;;2.23;0.90;;;;;;;10.53;87.36;98239.56;5041115;28;20206;-74
2023/11/02 05:52:50;;;;;;;3.27;0.70;;;;;;;10.57;86.33;98231.06;5036129;28;20221;-74
2023/11/02 05:55:17;;;;;;;1.57;0.33;;;;;;;10.61;85.70;98223.63;5045213;28;20234;-75
2023/11/02 05:57:43;;;;;;;1.63;0.60;;;;;;;10.59;86.02;98221.13;5043537;28;20226;-74
2023/11/02 06:00:11;;;;;;;3.57;0.50;;;;;;;10.64;85.85;98218.00;5041673;28;20202;-74
2023/11/02 06:02:37;;;;;;;1.20;0.43;;;;;;;10.66;85.71;98224.00;5044224;28;20217;-74
2023/11/02 06:05:05;;;;;;;2.73;0.63;;;;;;;10.69;85.17;98210.38;5044075;28;20211;-74
2023/11/02 06:07:33;;;;;;;1.93;0.63;;;;;;;10.72;84.65;98194.09;5043443;28;20210;-74
2023/11/02 06:09:59;;;;;;;1.40;0.50;;;;;;;10.75;84.03;98189.28;5041520;28;20609;-74
2023/11/02 06:12:26;;;;;;;1.37;0.50;;;;;;;10.76;84.45;98174.97;5042974;28;20570;-75
2023/11/02 06:14:53;;;;;;;4.93;0.50;;;;;;;10.78;83.73;98194.28;5044691;28;20245;-75
2023/11/02 06:17:19;;;;;;;1.77;0.50;;;;;;;10.79;83.86;98195.97;5042386;28;20247;-73
2023/11/02 06:19:46;;;;;;;0.83;0.40;;;;;;;10.79;84.33;98187.13;5042536;28;20210;-74
2023/11/02 06:22:12;;;;;;;0.80;0.37;;;;;;;10.82;83.66;98193.97;5042884;28;20210;-75
2023/11/02 06:24:41;;;;;;;2.23;0.60;;;;;;;10.82;83.19;98185.97;5043355;28;20249;-74
2023/11/02 06:27:08;;;;;;;2.30;0.60;;;;;;;10.84;83.01;98168.03;5040635;28;20216;-74
2023/11/02 06:29:35;;;;;;;2.57;0.70;;;;;;;10.81;82.61;98152.38;5039275;28;20219;-74
2023/11/02 06:32:02;;;;;;;2.73;0.70;;;;;;;10.81;82.14;98153.19;5032317;28;20218;-74
2023/11/02 06:34:28;;;;;;;1.03;0.63;;;;;;;10.83;82.37;98137.91;5041244;28;20244;-75
2023/11/02 06:36:54;;;;;;;0.70;0.50;;;;;;;10.84;81.73;98126.25;5041283;28;20230;-74
2023/11/02 06:39:21;;;;;;;1.10;0.40;;;;;;;10.83;81.67;98129.06;5038696;28;20214;-72
2023/11/02 06:41:49;;;;;;;2.00;0.53;;;;;;;10.84;81.64;98128.09;5039524;28;20642;-70
2023/11/02 06:44:15;;;;;;;1.47;0.50;;;;;;;10.84;81.16;98120.94;5041818;28;20230;-72
2023/11/02 06:46:43;;;;;;;2.30;1.13;;;;;;;10.86;80.68;98110.13;5040948;28;20207;-71
2023/11/02 06:49:10;;;;;;;2.77;0.87;;;;;;;10.85;80.44;98111.94;5031683;28;20202;-72
2023/11/02 06:51:36;;;;;;;1.87;0.60;;;;;;;10.87;80.71;98091.34;5037474;28;20216;-75
2023/11/02 06:54:04;;;;;;;5.20;0.70;;;;;;;10.87;80.32;98069.19;5043099;28;20227;-74
2023/11/02 06:56:30;;;;;;;2.20;0.70;;;;;;;10.90;79.42;98066.22;5043739;28;20202;-74
2023/11/02 06:58:58;;;;;;;3.20;0.97;;;;;;;10.93;79.53;98047.22;5043509;28;20260;-74
2023/11/02 07:01:25;;;;;;;3.17;0.80;;;;;;;10.96;78.44;98049.56;5042905;28;20684;-72
2023/11/02 07:03:52;;;;;;;1.83;0.50;;;;;;;10.95;78.19;98053.22;5040145;28;20261;-74
2023/11/02 07:06:18;;;;;;;1.23;0.60;;;;;;;10.96;78.48;98050.41;5041940;28;20209;-74
2023/11/02 07:08:44;;;;;;;2.03;0.50;;;;;;;10.95;78.45;98010.63;5043130;28;20689;-72
2023/11/02 07:11:11;;;;;;;1.03;0.60;;;;;;;10.98;78.53;97995.16;5040790;28;20799;-73
2023/11/02 07:13:38;;;;;;;1.43;0.50;;;;;;;11.00;77.03;97979.84;5041623;28;20718;-74
2023/11/02 07:16:07;;;;;;;1.57;0.47;;;;;;;11.03;76.53;97958.22;5042907;28;20209;-74
2023/11/02 07:18:33;;;;;;;3.20;0.60;;;;;;;11.04;76.73;97954.56;5042876;28;20227;-73
2023/11/02 07:21:00;;;;;;;1.77;0.60;;;;;;;11.05;75.73;97936.75;5045009;28;20211;-74
2023/11/02 07:23:26;;;;;;;1.63;0.57;;;;;;;11.11;75.50;97949.38;5040503;28;20234;-74
2023/11/02 07:25:53;;;;;;;1.93;0.70;;;;;;;11.12;75.84;97969.69;5042737;28;20199;-74
2023/11/02 07:28:19;;;;;;;0.57;0.40;;;;;;;11.20;75.01;97968.88;5044063;28;20226;-74
2023/11/02 07:30:46;;;;;;;1.57;0.40;;;;;;;11.22;74.87;97966.88;5038768;28;20215;-75
2023/11/02 07:33:14;;;;;;;2.20;0.30;;;;;;;11.29;74.68;97943.88;5043734;28;20641;-73
2023/11/02 07:35:40;;;;;;;0.93;0.70;;;;;;;11.31;73.88;97939.22;5045262;28;20203;-74
2023/11/02 07:38:07;;;;;;;4.27;0.67;;;;;;;11.31;73.92;97941.88;5041720;28;20735;-73
2023/11/02 07:40:33;;;;;;;5.13;0.40;;;;;;;11.31;73.36;97929.41;5038178;28;20209;-73
2023/11/02 07:43:00;;;;;;;0.83;0.50;;;;;;;11.38;73.29;97911.75;5044223;28;20275;-75
2023/11/02 07:45:27;;;;;;;2.77;0.40;;;;;;;11.38;73.33;97901.09;5038385;28;20200;-73
2023/11/02 07:47:53;;;;;;;2.20;0.60;;;;;;;11.38;72.91;97886.94;5042766;28;20668;-74
2023/11/02 07:50:21;;;;;;;2.30;0.40;;;;;;;11.39;72.79;97889.44;5039819;28;20855;-74
2023/11/02 07:52:47;;;;;;;1.43;0.50;;;;;;;11.46;72.53;97865.59;5045042;28;20205;-73
2023/11/02 07:55:14;;;;;;;1.70;0.50;;;;;;;11.44;72.14;97839.13;5043587;28;20686;-73
2023/11/02 07:57:40;;;;;;;2.40;0.50;;;;;;;11.47;72.02;97835.25;5041907;28;20229;-73
2023/11/02 08:00:10;;;;;;;0.63;0.30;;;;;;;11.49;71.93;97819.94;5043704;28;20211;-73
2023/11/02 08:02:36;;;;;;;1.60;0.43;;;;;;;11.49;72.15;97809.28;5042122;28;20749;-73
2023/11/02 08:05:03;;;;;;;1.43;0.70;;;;;;;11.49;72.49;97811.94;5041218;28;20208;-74
2023/11/02 08:07:31;;;;;;;1.03;0.50;;;;;;;11.52;71.94;97800.09;5042066;28;20575;-72
2023/11/02 08:09:58;;;;;;;0.57;0.40;;;;;;;11.54;71.73;97774.94;5044548;28;20214;-73
2023/11/02 08:12:25;;;;;;;2.07;0.50;;;;;;;11.53;72.48;97789.28;5039700;28;20584;-73
2023/11/02 08:14:52;;;;;;;2.83;0.50;;;;;;;11.54;72.33;97788.28;5041364;28;20236;-74
2023/11/02 08:17:21;;;;;;;1.80;0.40;;;;;;;11.54;72.46;97756.28;5041987;28;20328;-73
2023/11/02 08:19:47;;;;;;;1.43;0.40;;;;;;;11.54;72.76;97750.13;5040031;28;20306;-74
2023/11/02 08:22:14;;;;;;;0.60;0.50;;;;;;;11.55;72.52;97712.63;5046852;28;20208;-74
2023/11/02 08:24:42;;;;;;;3.67;0.90;;;;;;;11.59;72.55;97668.66;5039399;28;20241;-74
2023/11/02 08:27:08;;;;;;;0.77;0.50;;;;;;;11.58;72.65;97671.47;5042042;28;20695;-74
2023/11/02 08:29:35;;;;;;;0.90;0.37;;;;;;;11.62;73.39;97654.97;5040931;28;20209;-74
2023/11/02 08:32:02;;;;;;;1.27;0.50;;;;;;;11.63;73.00;97667.28;5042575;28;20378;-74
2023/11/02 08:34:28;;;;;;;5.90;0.40;;;;;;;11.64;73.11;97682.28;5040592;28;20237;-74
2023/11/02 08:36:55;;;;;;;0.83;0.63;;;;;;;11.68;72.60;97648.91;5043921;28;20571;-74
2023/11/02 08:39:21;;;;;;;1.73;0.40;;;;;;;11.71;72.32;97674.41;5044160;28;20240;-72
2023/11/02 08:41:49;;;;;;;0.27;0.20;;;;;;;11.75;71.60;97681.88;5045686;28;20677;-73
2023/11/02 08:44:15;;;;;;;2.20;0.40;;;;;;;11.76;71.83;97674.72;5045775;28;20749;-74
2023/11/02 08:46:42;;;;;;;0.90;0.43;;;;;;;11.78;72.29;97684.22;5044791;28;20587;-73
2023/11/02 08:49:08;;;;;;;1.57;0.40;;;;;;;11.81;71.90;97696.38;5043017;28;20202;-74
2023/11/02 08:51:35;;;;;;;1.17;0.40;;;;;;;11.84;71.52;97704.00;5047679;28;20219;-74
2023/11/02 08:54:03;;;;;;;2.47;0.30;;;;;;;11.83;71.95;97713.00;5044617;28;20235;-75
2023/11/02 08:56:30;;;;;;;2.37;0.80;;;;;;;11.85;71.19;97720.81;5047302;28;20207;-73
2023/11/02 08:58:57;;;;;;;2.23;0.40;;;;;;;11.85;70.57;97718.16;5043180;28;20233;-72
2023/11/02 09:01:25;;;;;;;2.23;0.40;;;;;;;11.88;70.97;97709.81;5041789;28;20593;-70
2023/11/02 09:03:52;;;;;;;0.50;0.40;;;;;;;11.91;70.63;97710.28;5044483;28;20335;-71
2023/11/02 09:06:20;;;;;;;1.23;0.20;;;;;;;11.93;70.11;97681.59;5044984;28;20212;-71
2023/11/02 09:08:47;;;;;;;0.37;0.20;;;;;;;11.95;71.09;97662.75;5041620;28;20225;-71
2023/11/02 09:11:13;;;;;;;1.70;0.50;;;;;;;11.96;70.62;97672.44;5042913;28;20209;-71
2023/11/02 09:13:40;;;;;;;3.37;0.37;;;;;;;11.98;69.86;97663.25;5046097;28;20236;-71
2023/11/02 09:16:10;;;;;;;1.47;0.40;;;;;;;11.99;69.82;97682.75;5041223;28;20699;-72
2023/11/02 09:18:38;;;;;;;1.07;0.40;;;;;;;12.00;70.06;97689.75;5041571;28;20275;-71
2023/11/02 09:21:05;;;;;;;1.93;0.50;;;;;;;12.03;70.20;97702.69;5046008;28;20242;-72
2023/11/02 09:23:32;;;;;;;0.73;0.40;;;;;;;12.04;70.04;97686.50;5048075;28;20260;-72
2023/11/02 09:25:59;;;;;;;2.03;0.47;;;;;;;12.07;70.63;97682.66;5045471;28;20212;-74
2023/11/02 09:28:25;;;;;;;0.70;0.40;;;;;;;12.09;69.72;97694.00;5044589;28;20244;-74
2023/11/02 09:30:52;;;;;;;1.07;0.50;;;;;;;12.11;69.67;97724.81;5044313;28;20279;-73
2023/11/02 09:33:20;;;;;;;1.37;0.60;;;;;;;12.09;69.28;97715.34;5043629;28;20222;-74
2023/11/02 09:35:46;;;;;;;0.60;0.30;;;;;;;12.08;70.23;97687.81;5045308;28;20200;-73
2023/11/02 09:38:14;;;;;;;0.77;0.37;;;;;;;12.11;70.44;97666.13;5048004;28;20314;-73
2023/11/02 09:40:41;;;;;;;1.27;0.43;;;;;;;12.09;71.01;97676.16;5043281;28;20216;-74
2023/11/02 09:43:08;;;;;;;0.70;0.40;;;;;;;12.10;70.52;97704.50;5042411;28;20731;-74
2023/11/02 09:45:36;;;;;;;1.70;0.43;;;;;;;12.09;70.51;97712.66;5047185;28;20206;-74
2023/11/02 09:48:04;;;;;;;0.83;0.50;;;;;;;12.10;69.99;97706.31;5032631;28;20205;-74
2023/11/02 09:50:32;;;;;;;0.40;0.40;;;;;;;12.10;69.98;97715.16;5045300;28;20267;-74
2023/11/02 09:52:59;;;;;;;1.13;0.60;;;;;;;12.09;70.52;97726.84;5042561;28;20223;-74
2023/11/02 09:55:26;;;;;;;0.70;0.30;;;;;;;12.13;70.50;97719.31;5041302;28;20218;-74
2023/11/02 09:57:53;;;;;;;4.17;0.43;;;;;;;12.15;69.66;97726.13;5042429;28;20702;-75
2023/11/02 10:00:20;;;;;;;0.60;0.40;;;;;;;12.14;70.19;97703.13;5041653;28;20216;-74
2023/11/02 10:02:48;;;;;;;0.83;0.43;;;;;;;12.15;69.53;97717.31;5046429;28;20209;-74
2023/11/02 10:05:14;;;;;;;1.17;0.40;;;;;;;12.18;69.48;97711.63;5038027;28;20215;-73
2023/11/02 10:07:42;;;;;;;1.00;0.40;;;;;;;12.20;70.19;97690.88;5043476;28;20214;-75
2023/11/02 10:10:10;;;;;;;0.70;0.50;;;;;;;12.20;69.44;97706.91;5042271;28;20206;-74
2023/11/02 10:12:37;;;;;;;1.77;0.40;;;;;;;12.23;69.56;97703.88;5040950;28;20201;-75
2023/11/02 10:15:04;;;;;;;1.23;0.40;;;;;;;12.25;69.98;97709.88;5039303;28;20697;-72
2023/11/02 10:17:35;;;;;;;0.93;0.40;;;;;;;12.27;69.80;97697.19;5032180;28;20209;-74
2023/11/02 10:20:07;;;;;;;2.00;0.43;;;;;;;12.28;69.47;97714.84;5027922;28;20225;-74
2023/11/02 10:22:33;;;;;;;0.83;0.40;;;;;;;12.29;69.54;97718.34;5033216;28;20203;-74
2023/11/02 10:25:01;;;;;;;1.80;0.50;;;;;;;12.34;70.05;97706.13;5033851;28;20202;-75
2023/11/02 10:27:28;;;;;;;0.40;0.30;;;;;;;12.38;69.68;97706.59;5042712;28;20213;-74
2023/11/02 10:29:55;;;;;;;1.20;0.60;;;;;;;12.41;69.79;97709.72;5041510;28;20208;-74
2023/11/02 10:32:23;;;;;;;1.20;0.50;;;;;;;12.44;69.44;97709.38;5042567;28;20205;-74
2023/11/02 10:34:51;;;;;;;0.60;0.37;;;;;;;12.49;69.99;97691.00;5043606;28;20229;-74
2023/11/02 10:37:30;;;;;;;3.27;0.60;;;;;;;12.48;69.36;97697.34;5042283;28;20209;-73
2023/11/02 10:39:56;;;;;;;0.60;0.50;;;;;;;12.48;69.35;97686.66;5044008;28;20415;-74
2023/11/02 10:42:25;;;;;;;1.17;0.50;;;;;;;12.50;69.37;97681.13;5041588;28;20205;-74
2023/11/02 10:44:52;;;;;;;1.00;0.40;;;;;;;12.53;69.38;97675.44;5043329;28;20226;-74
2023/11/02 10:47:20;;;;;;;1.53;0.40;;;;;;;12.52;69.34;97665.78;5045532;28;20201;-75
2023/11/02 10:49:50;;;;;;;1.03;0.40;;;;;;;12.51;69.67;97654.25;5043278;28;20198;-74
2023/11/02 10:52:29;;;;;;;0.90;0.50;;;;;;;12.50;69.52;97660.63;5041152;28;20214;-74
2023/11/02 10:55:04;;;;;;;1.00;0.50;;;;;;;12.50;69.71;97647.28;5046083;28;20217;-72
2023/11/02 10:57:34;;;;;;;1.60;0.40;;;;;;;12.55;69.25;97653.88;5038197;28;20398;-74
2023/11/02 11:00:04;;;;;;;0.80;0.43;;;;;;;12.57;69.12;97651.84;5044357;28;20606;-74
2023/11/02 11:02:31;;;;;;;0.60;0.40;;;;;;;12.57;68.98;97641.19;5036675;28;20216;-74
2023/11/02 11:04:59;;;;;;;1.83;0.40;;;;;;;12.62;68.94;97628.94;5037445;28;20231;-74
2023/11/02 11:07:25;;;;;;;1.10;0.40;;;;;;;12.61;69.48;97621.94;5043934;28;20205;-74
2023/11/02 11:09:52;;;;;;;0.60;0.30;;;;;;;12.64;69.09;97637.59;5034857;28;20198;-74
2023/11/02 11:12:20;;;;;;;0.73;0.40;;;;;;;12.67;69.03;97633.75;5039120;28;20209;-73
2023/11/02 11:14:50;;;;;;;1.07;0.43;;;;;;;12.71;68.92;97609.16;5040484;28;20253;-73
2023/11/02 11:17:16;;;;;;;3.40;0.93;;;;;;;12.76;68.79;97614.75;5044049;28;20617;-75
2023/11/02 11:19:43;;;;;;;1.87;0.40;;;;;;;12.75;69.29;97604.25;5034327;28;20228;-74
2023/11/02 11:22:14;;;;;;;1.33;0.40;;;;;;;12.78;69.22;97601.22;5044538;28;20201;-74
2023/11/02 11:24:41;;;;;;;1.00;0.50;;;;;;;12.80;68.09;97592.03;5039788;28;20249;-74
2023/11/02 11:27:08;;;;;;;2.93;0.60;;;;;;;12.82;68.07;97603.34;5026260;28;20400;-74
2023/11/02 11:29:36;;;;;;;1.10;0.50;;;;;;;12.88;68.85;97592.94;5031226;28;20217;-73
2023/11/02 11:32:05;;;;;;;1.17;0.43;;;;;;;12.92;68.87;97600.38;5042050;28;20202;-74
2023/11/02 11:35:05;;;;;;;1.80;0.43;;;;;;;13.03;68.35;97591.09;5036368;28;20608;-75
2023/11/02 11:37:37;;;;;;;0.83;0.50;;;;;;;13.14;68.03;97575.38;5037808;28;20210;-74
2023/11/02 11:40:05;;;;;;;1.33;0.40;;;;;;;13.25;68.68;97581.31;5031506;28;20222;-74
2023/11/02 11:43:01;;;;;;;0.63;0.40;;;;;;;13.35;68.61;97569.28;5037497;28;20714;-74
2023/11/02 11:45:30;;;;;;;1.43;0.40;;;;;;;13.42;67.24;97559.50;5019527;28;20268;-74
2023/11/02 11:47:58;;;;;;;1.67;0.40;;;;;;;13.47;67.21;97566.91;5030230;28;20218;-73